sensor_id;sensor_type;location;lat;lon;timestamp;pressure;altitude;pressure_sealevel;temperature;humidity
57050;BME280;42935;50.966;16.992;2023-08-31T00:01:49;100678.91;;;13.94;100.00
57050;BME280;42935;50.966;16.992;2023-08-31T00:05:10;100682.34;;;13.88;100.00
57050;BME280;42935;50.966;16.992;2023-08-31T00:08:31;100683.77;;;13.77;100.00
57050;BME280;42935;50.966;16.992;2023-08-31T00:11:48;100690.45;;;13.76;100.00
57050;BME280;42935;50.966;16.992;2023-08-31T00:15:06;100680.77;;;13.54;100.00
57050;BME280;42935;50.966;16.992;2023-08-31T00:18:25;100669.86;;;13.65;100.00
57050;BME280;42935;50.966;16.992;2023-08-31T00:21:43;100686.59;;;13.71;100.00
57050;BME280;42935;50.966;16.992;2023-08-31T00:24:57;100677.41;;;13.72;100.00
57050;BME280;42935;50.966;16.992;2023-08-31T00:28:15;100683.86;;;13.80;100.00
57050;BME280;42935;50.966;16.992;2023-08-31T00:31:34;100682.05;;;13.80;100.00
57050;BME280;42935;50.966;16.992;2023-08-31T00:34:52;100667.78;;;13.67;100.00
57050;BME280;42935;50.966;16.992;2023-08-31T00:38:09;100671.37;;;13.67;100.00
57050;BME280;42935;50.966;16.992;2023-08-31T00:41:26;100663.26;;;13.30;100.00
57050;BME280;42935;50.966;16.992;2023-08-31T00:44:42;100673.37;;;13.06;100.00
57050;BME280;42935;50.966;16.992;2023-08-31T00:48:06;100656.44;;;12.78;100.00
57050;BME280;42935;50.966;16.992;2023-08-31T00:51:28;100672.19;;;12.77;100.00
57050;BME280;42935;50.966;16.992;2023-08-31T00:54:41;100684.94;;;12.59;100.00
57050;BME280;42935;50.966;16.992;2023-08-31T00:57:59;100685.13;;;12.50;100.00
57050;BME280;42935;50.966;16.992;2023-08-31T01:08:58;100687.61;;;12.14;100.00
57050;BME280;42935;50.966;16.992;2023-08-31T01:15:51;100678.86;;;12.43;100.00
57050;BME280;42935;50.966;16.992;2023-08-31T01:26:07;100669.44;;;12.50;100.00
57050;BME280;42935;50.966;16.992;2023-08-31T01:29:29;100669.35;;;12.44;100.00
57050;BME280;42935;50.966;16.992;2023-08-31T01:32:46;100673.21;;;12.63;100.00
57050;BME280;42935;50.966;16.992;2023-08-31T01:36:12;100661.20;;;12.62;100.00
57050;BME280;42935;50.966;16.992;2023-08-31T01:43:03;100676.99;;;12.62;100.00
57050;BME280;42935;50.966;16.992;2023-08-31T01:46:19;100681.39;;;12.52;100.00
57050;BME280;42935;50.966;16.992;2023-08-31T01:49:40;100668.58;;;12.43;100.00
57050;BME280;42935;50.966;16.992;2023-08-31T01:52:57;100673.73;;;12.47;100.00
57050;BME280;42935;50.966;16.992;2023-08-31T01:56:10;100670.70;;;12.44;100.00
57050;BME280;42935;50.966;16.992;2023-08-31T01:59:27;100674.72;;;12.22;100.00
57050;BME280;42935;50.966;16.992;2023-08-31T02:02:45;100672.52;;;12.21;100.00
57050;BME280;42935;50.966;16.992;2023-08-31T02:06:02;100678.53;;;12.25;100.00
57050;BME280;42935;50.966;16.992;2023-08-31T02:09:20;100668.76;;;12.23;100.00
57050;BME280;42935;50.966;16.992;2023-08-31T02:12:38;100685.77;;;12.29;100.00
57050;BME280;42935;50.966;16.992;2023-08-31T02:15:55;100683.95;;;12.28;100.00
57050;BME280;42935;50.966;16.992;2023-08-31T02:19:18;100680.79;;;12.28;100.00
57050;BME280;42935;50.966;16.992;2023-08-31T02:22:35;100682.25;;;12.33;100.00
57050;BME280;42935;50.966;16.992;2023-08-31T02:25:49;100665.30;;;12.20;100.00
57050;BME280;42935;50.966;16.992;2023-08-31T02:29:06;100684.37;;;12.30;100.00
57050;BME280;42935;50.966;16.992;2023-08-31T02:32:24;100676.71;;;12.22;100.00
57050;BME280;42935;50.966;16.992;2023-08-31T02:35:39;100692.38;;;12.11;100.00
57050;BME280;42935;50.966;16.992;2023-08-31T02:39:00;100696.17;;;11.99;100.00
57050;BME280;42935;50.966;16.992;2023-08-31T02:42:19;100676.95;;;12.07;100.00
57050;BME280;42935;50.966;16.992;2023-08-31T02:45:34;100690.80;;;12.13;100.00
57050;BME280;42935;50.966;16.992;2023-08-31T02:48:51;100678.58;;;12.06;100.00
57050;BME280;42935;50.966;16.992;2023-08-31T02:52:08;100676.44;;;12.08;100.00
57050;BME280;42935;50.966;16.992;2023-08-31T02:55:25;100681.91;;;12.19;100.00
57050;BME280;42935;50.966;16.992;2023-08-31T02:58:44;100683.28;;;12.18;100.00
57050;BME280;42935;50.966;16.992;2023-08-31T03:02:05;100680.23;;;12.25;100.00
57050;BME280;42935;50.966;16.992;2023-08-31T03:05:22;100682.78;;;12.07;100.00
57050;BME280;42935;50.966;16.992;2023-08-31T03:08:43;100683.68;;;11.95;100.00
57050;BME280;42935;50.966;16.992;2023-08-31T03:12:00;100672.31;;;11.90;100.00
57050;BME280;42935;50.966;16.992;2023-08-31T03:15:17;100672.08;;;11.98;100.00
57050;BME280;42935;50.966;16.992;2023-08-31T03:18:34;100685.26;;;12.05;100.00
57050;BME280;42935;50.966;16.992;2023-08-31T03:21:55;100691.01;;;12.07;100.00
57050;BME280;42935;50.966;16.992;2023-08-31T03:25:17;100676.71;;;12.01;100.00
57050;BME280;42935;50.966;16.992;2023-08-31T03:28:34;100691.19;;;12.07;100.00
57050;BME280;42935;50.966;16.992;2023-08-31T03:31:47;100689.09;;;12.16;100.00
57050;BME280;42935;50.966;16.992;2023-08-31T03:35:05;100679.91;;;12.19;100.00
57050;BME280;42935;50.966;16.992;2023-08-31T03:38:23;100685.53;;;12.21;100.00
57050;BME280;42935;50.966;16.992;2023-08-31T03:41:40;100690.37;;;12.22;100.00
57050;BME280;42935;50.966;16.992;2023-08-31T03:44:57;100690.37;;;12.23;100.00
57050;BME280;42935;50.966;16.992;2023-08-31T03:48:18;100681.74;;;12.18;100.00
57050;BME280;42935;50.966;16.992;2023-08-31T03:51:35;100690.34;;;12.20;100.00
57050;BME280;42935;50.966;16.992;2023-08-31T03:54:52;100684.85;;;12.12;100.00
57050;BME280;42935;50.966;16.992;2023-08-31T03:58:07;100672.88;;;12.04;100.00
57050;BME280;42935;50.966;16.992;2023-08-31T04:01:23;100675.80;;;12.05;100.00
57050;BME280;42935;50.966;16.992;2023-08-31T04:04:40;100684.84;;;12.10;100.00
57050;BME280;42935;50.966;16.992;2023-08-31T04:07:55;100688.71;;;12.05;100.00
57050;BME280;42935;50.966;16.992;2023-08-31T04:11:16;100685.87;;;12.10;100.00
57050;BME280;42935;50.966;16.992;2023-08-31T04:14:38;100687.91;;;12.11;100.00
57050;BME280;42935;50.966;16.992;2023-08-31T04:18:01;100686.07;;;12.12;100.00
57050;BME280;42935;50.966;16.992;2023-08-31T04:21:19;100681.09;;;12.14;100.00
57050;BME280;42935;50.966;16.992;2023-08-31T04:24:36;100680.14;;;12.16;100.00
57050;BME280;42935;50.966;16.992;2023-08-31T04:27:57;100684.37;;;12.29;100.00
57050;BME280;42935;50.966;16.992;2023-08-31T04:31:14;100683.24;;;12.24;100.00
57050;BME280;42935;50.966;16.992;2023-08-31T04:34:31;100678.03;;;12.30;100.00
57050;BME280;42935;50.966;16.992;2023-08-31T04:37:46;100691.79;;;12.50;100.00
57050;BME280;42935;50.966;16.992;2023-08-31T04:41:05;100697.61;;;12.59;100.00
57050;BME280;42935;50.966;16.992;2023-08-31T04:44:20;100693.25;;;12.61;100.00
57050;BME280;42935;50.966;16.992;2023-08-31T04:47:42;100683.34;;;12.60;100.00
57050;BME280;42935;50.966;16.992;2023-08-31T04:51:04;100683.66;;;12.75;100.00
57050;BME280;42935;50.966;16.992;2023-08-31T04:54:22;100688.21;;;12.82;100.00
57050;BME280;42935;50.966;16.992;2023-08-31T04:57:39;100692.13;;;12.91;100.00
57050;BME280;42935;50.966;16.992;2023-08-31T05:00:56;100696.77;;;12.80;100.00
57050;BME280;42935;50.966;16.992;2023-08-31T05:04:17;100706.23;;;12.73;100.00
57050;BME280;42935;50.966;16.992;2023-08-31T05:07:34;100714.95;;;12.74;100.00
57050;BME280;42935;50.966;16.992;2023-08-31T05:10:51;100712.02;;;12.87;100.00
57050;BME280;42935;50.966;16.992;2023-08-31T05:14:08;100709.02;;;12.87;100.00
57050;BME280;42935;50.966;16.992;2023-08-31T05:17:27;100702.66;;;12.97;100.00
57050;BME280;42935;50.966;16.992;2023-08-31T05:20:47;100708.48;;;13.03;100.00
57050;BME280;42935;50.966;16.992;2023-08-31T05:24:03;100725.68;;;12.92;100.00
57050;BME280;42935;50.966;16.992;2023-08-31T05:27:18;100725.63;;;13.01;100.00
57050;BME280;42935;50.966;16.992;2023-08-31T05:30:35;100711.92;;;13.11;100.00
57050;BME280;42935;50.966;16.992;2023-08-31T05:33:52;100717.59;;;13.43;100.00
57050;BME280;42935;50.966;16.992;2023-08-31T05:37:05;100740.89;;;13.50;100.00
57050;BME280;42935;50.966;16.992;2023-08-31T05:40:21;100750.41;;;13.61;100.00
57050;BME280;42935;50.966;16.992;2023-08-31T05:43:40;100754.82;;;13.68;100.00
57050;BME280;42935;50.966;16.992;2023-08-31T05:47:01;100758.91;;;13.69;100.00
57050;BME280;42935;50.966;16.992;2023-08-31T05:50:19;100757.02;;;13.62;100.00
57050;BME280;42935;50.966;16.992;2023-08-31T05:54:04;100762.25;;;13.67;100.00
57050;BME280;42935;50.966;16.992;2023-08-31T05:57:26;100774.99;;;13.83;100.00
57050;BME280;42935;50.966;16.992;2023-08-31T06:00:48;100778.77;;;13.83;100.00
57050;BME280;42935;50.966;16.992;2023-08-31T06:04:06;100780.48;;;13.71;100.00
57050;BME280;42935;50.966;16.992;2023-08-31T06:07:22;100772.65;;;13.63;100.00
57050;BME280;42935;50.966;16.992;2023-08-31T06:10:40;100777.98;;;13.53;100.00
57050;BME280;42935;50.966;16.992;2023-08-31T06:14:06;100774.41;;;13.55;100.00
57050;BME280;42935;50.966;16.992;2023-08-31T06:17:20;100769.48;;;13.64;100.00
57050;BME280;42935;50.966;16.992;2023-08-31T06:20:42;100775.03;;;13.80;100.00
57050;BME280;42935;50.966;16.992;2023-08-31T06:23:59;100764.45;;;13.93;100.00
57050;BME280;42935;50.966;16.992;2023-08-31T06:27:16;100764.23;;;14.00;100.00
57050;BME280;42935;50.966;16.992;2023-08-31T06:30:34;100780.34;;;14.31;100.00
57050;BME280;42935;50.966;16.992;2023-08-31T06:34:18;100787.26;;;14.47;100.00
57050;BME280;42935;50.966;16.992;2023-08-31T06:37:35;100792.72;;;14.71;100.00
57050;BME280;42935;50.966;16.992;2023-08-31T06:40:52;100795.85;;;14.72;100.00
57050;BME280;42935;50.966;16.992;2023-08-31T06:44:16;100798.74;;;14.78;100.00
57050;BME280;42935;50.966;16.992;2023-08-31T06:47:34;100800.41;;;14.80;100.00
57050;BME280;42935;50.966;16.992;2023-08-31T06:51:22;100786.32;;;14.89;100.00
57050;BME280;42935;50.966;16.992;2023-08-31T06:54:41;100792.77;;;15.18;100.00
57050;BME280;42935;50.966;16.992;2023-08-31T06:58:02;100794.36;;;15.33;100.00
57050;BME280;42935;50.966;16.992;2023-08-31T07:01:16;100797.67;;;15.44;100.00
57050;BME280;42935;50.966;16.992;2023-08-31T07:04:34;100797.62;;;15.59;100.00
57050;BME280;42935;50.966;16.992;2023-08-31T07:07:54;100804.33;;;15.68;100.00
57050;BME280;42935;50.966;16.992;2023-08-31T07:11:41;100813.14;;;15.92;100.00
57050;BME280;42935;50.966;16.992;2023-08-31T07:15:03;100819.93;;;16.09;100.00
57050;BME280;42935;50.966;16.992;2023-08-31T07:18:22;100825.38;;;16.15;100.00
57050;BME280;42935;50.966;16.992;2023-08-31T07:21:41;100824.00;;;16.23;100.00
57050;BME280;42935;50.966;16.992;2023-08-31T07:24:56;100816.42;;;16.33;100.00
57050;BME280;42935;50.966;16.992;2023-08-31T07:28:09;100829.50;;;16.62;100.00
57050;BME280;42935;50.966;16.992;2023-08-31T07:31:27;100829.97;;;16.76;100.00
57050;BME280;42935;50.966;16.992;2023-08-31T07:34:48;100837.55;;;16.91;100.00
57050;BME280;42935;50.966;16.992;2023-08-31T07:38:06;100826.64;;;16.78;100.00
57050;BME280;42935;50.966;16.992;2023-08-31T07:41:23;100834.46;;;16.78;100.00
57050;BME280;42935;50.966;16.992;2023-08-31T07:44:36;100843.16;;;17.26;100.00
57050;BME280;42935;50.966;16.992;2023-08-31T07:47:51;100842.85;;;17.24;100.00
57050;BME280;42935;50.966;16.992;2023-08-31T07:51:08;100839.13;;;17.20;100.00
57050;BME280;42935;50.966;16.992;2023-08-31T07:54:27;100830.00;;;16.87;100.00
57050;BME280;42935;50.966;16.992;2023-08-31T07:57:45;100855.88;;;17.12;100.00
57050;BME280;42935;50.966;16.992;2023-08-31T08:01:02;100873.06;;;17.04;100.00
57050;BME280;42935;50.966;16.992;2023-08-31T08:04:25;100878.07;;;16.89;100.00
57050;BME280;42935;50.966;16.992;2023-08-31T08:07:47;100881.36;;;16.65;100.00
57050;BME280;42935;50.966;16.992;2023-08-31T08:11:03;100881.22;;;16.93;100.00
57050;BME280;42935;50.966;16.992;2023-08-31T08:14:24;100873.38;;;17.00;100.00
57050;BME280;42935;50.966;16.992;2023-08-31T08:17:40;100881.42;;;16.98;100.00
57050;BME280;42935;50.966;16.992;2023-08-31T08:20:55;100892.86;;;16.61;100.00
57050;BME280;42935;50.966;16.992;2023-08-31T08:24:12;100882.39;;;16.64;100.00
57050;BME280;42935;50.966;16.992;2023-08-31T08:27:27;100882.11;;;16.49;100.00
57050;BME280;42935;50.966;16.992;2023-08-31T08:30:45;100888.46;;;16.55;100.00
57050;BME280;42935;50.966;16.992;2023-08-31T08:34:08;100875.86;;;16.39;100.00
57050;BME280;42935;50.966;16.992;2023-08-31T08:37:24;100904.86;;;16.41;100.00
57050;BME280;42935;50.966;16.992;2023-08-31T08:40:39;100917.33;;;16.24;100.00
57050;BME280;42935;50.966;16.992;2023-08-31T08:44:02;100910.02;;;16.20;100.00
57050;BME280;42935;50.966;16.992;2023-08-31T08:47:18;100911.55;;;16.21;100.00
57050;BME280;42935;50.966;16.992;2023-08-31T08:50:37;100910.66;;;16.13;100.00
57050;BME280;42935;50.966;16.992;2023-08-31T08:53:54;100924.36;;;16.08;100.00
57050;BME280;42935;50.966;16.992;2023-08-31T08:57:12;100927.66;;;16.13;100.00
57050;BME280;42935;50.966;16.992;2023-08-31T09:00:33;100921.18;;;16.06;100.00
57050;BME280;42935;50.966;16.992;2023-08-31T09:03:51;100931.59;;;16.25;100.00
57050;BME280;42935;50.966;16.992;2023-08-31T09:07:12;100934.97;;;16.23;100.00
57050;BME280;42935;50.966;16.992;2023-08-31T09:10:59;100934.95;;;16.29;100.00
57050;BME280;42935;50.966;16.992;2023-08-31T09:14:19;100920.61;;;16.12;100.00
57050;BME280;42935;50.966;16.992;2023-08-31T09:17:42;100954.48;;;16.09;100.00
57050;BME280;42935;50.966;16.992;2023-08-31T09:21:03;100965.34;;;15.78;100.00
57050;BME280;42935;50.966;16.992;2023-08-31T09:24:20;100968.38;;;15.63;100.00
57050;BME280;42935;50.966;16.992;2023-08-31T09:27:39;100970.86;;;15.28;100.00
57050;BME280;42935;50.966;16.992;2023-08-31T09:31:08;100974.79;;;15.20;100.00
57050;BME280;42935;50.966;16.992;2023-08-31T09:34:32;100987.59;;;14.76;100.00
57050;BME280;42935;50.966;16.992;2023-08-31T09:41:11;101001.48;;;14.28;100.00
57050;BME280;42935;50.966;16.992;2023-08-31T09:44:32;101021.94;;;14.25;100.00
57050;BME280;42935;50.966;16.992;2023-08-31T09:47:47;101019.56;;;14.20;100.00
57050;BME280;42935;50.966;16.992;2023-08-31T09:51:04;101021.17;;;14.08;100.00
57050;BME280;42935;50.966;16.992;2023-08-31T09:54:21;101031.91;;;14.19;100.00
57050;BME280;42935;50.966;16.992;2023-08-31T09:57:41;101023.94;;;14.17;100.00
57050;BME280;42935;50.966;16.992;2023-08-31T10:01:06;101031.16;;;14.08;100.00
57050;BME280;42935;50.966;16.992;2023-08-31T10:04:23;101031.85;;;14.23;100.00
57050;BME280;42935;50.966;16.992;2023-08-31T10:07:42;101046.92;;;14.31;100.00
57050;BME280;42935;50.966;16.992;2023-08-31T10:11:01;101049.38;;;14.36;100.00
57050;BME280;42935;50.966;16.992;2023-08-31T10:14:18;101057.97;;;14.29;100.00
57050;BME280;42935;50.966;16.992;2023-08-31T10:17:39;101054.81;;;14.47;100.00
57050;BME280;42935;50.966;16.992;2023-08-31T10:20:53;101049.59;;;14.65;100.00
57050;BME280;42935;50.966;16.992;2023-08-31T10:24:07;101058.35;;;14.61;100.00
57050;BME280;42935;50.966;16.992;2023-08-31T10:27:22;101057.05;;;14.82;100.00
57050;BME280;42935;50.966;16.992;2023-08-31T10:30:35;101063.09;;;14.94;100.00
57050;BME280;42935;50.966;16.992;2023-08-31T10:33:57;101061.48;;;14.77;100.00
57050;BME280;42935;50.966;16.992;2023-08-31T10:37:19;101051.87;;;15.26;100.00
57050;BME280;42935;50.966;16.992;2023-08-31T10:40:38;101039.27;;;15.89;100.00
57050;BME280;42935;50.966;16.992;2023-08-31T10:43:57;101026.79;;;16.25;100.00
57050;BME280;42935;50.966;16.992;2023-08-31T10:47:14;101038.50;;;16.34;100.00
57050;BME280;42935;50.966;16.992;2023-08-31T10:50:41;101030.30;;;16.56;100.00
57050;BME280;42935;50.966;16.992;2023-08-31T10:57:30;101051.02;;;16.53;100.00
57050;BME280;42935;50.966;16.992;2023-08-31T11:04:53;101048.61;;;16.36;100.00
57050;BME280;42935;50.966;16.992;2023-08-31T11:08:10;101039.46;;;16.03;100.00
57050;BME280;42935;50.966;16.992;2023-08-31T11:11:25;101034.34;;;16.11;100.00
57050;BME280;42935;50.966;16.992;2023-08-31T11:14:43;101028.35;;;16.41;100.00
57050;BME280;42935;50.966;16.992;2023-08-31T11:17:57;101029.42;;;16.29;100.00
57050;BME280;42935;50.966;16.992;2023-08-31T11:21:13;101023.52;;;16.87;100.00
57050;BME280;42935;50.966;16.992;2023-08-31T11:24:33;101024.64;;;17.40;96.85
57050;BME280;42935;50.966;16.992;2023-08-31T11:27:57;101027.17;;;17.39;90.07
57050;BME280;42935;50.966;16.992;2023-08-31T11:31:24;101008.76;;;17.41;85.68
57050;BME280;42935;50.966;16.992;2023-08-31T11:34:41;101009.47;;;17.21;89.69
57050;BME280;42935;50.966;16.992;2023-08-31T11:37:58;100999.31;;;17.45;81.92
57050;BME280;42935;50.966;16.992;2023-08-31T11:41:12;101003.20;;;17.64;79.88
57050;BME280;42935;50.966;16.992;2023-08-31T11:44:27;101010.94;;;17.92;80.75
57050;BME280;42935;50.966;16.992;2023-08-31T11:47:48;101008.14;;;17.99;81.59
57050;BME280;42935;50.966;16.992;2023-08-31T11:51:06;101012.30;;;18.30;85.26
57050;BME280;42935;50.966;16.992;2023-08-31T11:54:25;101019.34;;;18.24;81.97
57050;BME280;42935;50.966;16.992;2023-08-31T11:58:13;101021.70;;;17.88;87.44
57050;BME280;42935;50.966;16.992;2023-08-31T12:01:28;101003.59;;;17.47;87.03
57050;BME280;42935;50.966;16.992;2023-08-31T12:04:46;101028.76;;;17.31;86.62
57050;BME280;42935;50.966;16.992;2023-08-31T12:08:01;101032.69;;;17.19;89.86
57050;BME280;42935;50.966;16.992;2023-08-31T12:11:20;101030.07;;;17.20;92.25
57050;BME280;42935;50.966;16.992;2023-08-31T12:14:37;101048.22;;;16.74;99.67
57050;BME280;42935;50.966;16.992;2023-08-31T12:17:55;101050.16;;;16.27;100.00
57050;BME280;42935;50.966;16.992;2023-08-31T12:21:12;101041.23;;;15.54;100.00
57050;BME280;42935;50.966;16.992;2023-08-31T12:24:36;101030.83;;;15.48;100.00
57050;BME280;42935;50.966;16.992;2023-08-31T12:27:52;101018.13;;;15.31;100.00
57050;BME280;42935;50.966;16.992;2023-08-31T12:31:05;101020.00;;;15.58;100.00
57050;BME280;42935;50.966;16.992;2023-08-31T12:34:20;101006.09;;;16.18;100.00
57050;BME280;42935;50.966;16.992;2023-08-31T12:37:37;101010.75;;;16.34;100.00
57050;BME280;42935;50.966;16.992;2023-08-31T12:40:53;100992.59;;;16.77;100.00
57050;BME280;42935;50.966;16.992;2023-08-31T12:44:08;101017.28;;;17.21;100.00
57050;BME280;42935;50.966;16.992;2023-08-31T12:47:25;101009.18;;;17.52;100.00
57050;BME280;42935;50.966;16.992;2023-08-31T12:50:42;101020.78;;;17.82;100.00
57050;BME280;42935;50.966;16.992;2023-08-31T12:53:55;101016.54;;;19.00;100.00
57050;BME280;42935;50.966;16.992;2023-08-31T12:57:13;101014.41;;;19.23;98.97
57050;BME280;42935;50.966;16.992;2023-08-31T13:00:28;101016.24;;;19.96;93.55
57050;BME280;42935;50.966;16.992;2023-08-31T13:03:43;101015.43;;;19.72;88.46
57050;BME280;42935;50.966;16.992;2023-08-31T13:07:00;101010.27;;;20.15;87.00
57050;BME280;42935;50.966;16.992;2023-08-31T13:10:18;101012.30;;;19.60;83.72
57050;BME280;42935;50.966;16.992;2023-08-31T13:13:35;101015.66;;;19.35;85.88
57050;BME280;42935;50.966;16.992;2023-08-31T13:16:52;101018.91;;;19.83;85.79
57050;BME280;42935;50.966;16.992;2023-08-31T13:20:13;101013.38;;;19.75;80.25
57050;BME280;42935;50.966;16.992;2023-08-31T13:23:33;101018.46;;;20.48;81.36
57050;BME280;42935;50.966;16.992;2023-08-31T13:26:46;100991.94;;;20.47;79.57
57050;BME280;42935;50.966;16.992;2023-08-31T13:30:06;101013.13;;;19.99;76.94
57050;BME280;42935;50.966;16.992;2023-08-31T13:33:55;100998.72;;;19.98;73.82
57050;BME280;42935;50.966;16.992;2023-08-31T13:37:13;101001.90;;;20.46;74.11
57050;BME280;42935;50.966;16.992;2023-08-31T13:40:35;101011.66;;;19.86;72.49
57050;BME280;42935;50.966;16.992;2023-08-31T13:43:56;101022.20;;;18.67;75.25
57050;BME280;42935;50.966;16.992;2023-08-31T13:47:13;101023.38;;;18.56;77.26
57050;BME280;42935;50.966;16.992;2023-08-31T13:50:28;101031.49;;;17.94;80.10
57050;BME280;42935;50.966;16.992;2023-08-31T13:53:51;101023.84;;;18.15;84.04
57050;BME280;42935;50.966;16.992;2023-08-31T13:57:07;101023.91;;;18.55;79.05
57050;BME280;42935;50.966;16.992;2023-08-31T14:00:27;101017.27;;;18.69;84.23
57050;BME280;42935;50.966;16.992;2023-08-31T14:05:10;101025.40;;;19.84;74.43
57050;BME280;42935;50.966;16.992;2023-08-31T14:08:24;101027.26;;;18.61;79.19
57050;BME280;42935;50.966;16.992;2023-08-31T14:11:41;101017.54;;;18.63;76.57
57050;BME280;42935;50.966;16.992;2023-08-31T14:14:54;101015.60;;;19.90;78.44
57050;BME280;42935;50.966;16.992;2023-08-31T14:18:10;101022.65;;;20.23;74.39
57050;BME280;42935;50.966;16.992;2023-08-31T14:21:26;101023.88;;;20.47;71.34
57050;BME280;42935;50.966;16.992;2023-08-31T14:24:41;101024.70;;;20.35;70.31
57050;BME280;42935;50.966;16.992;2023-08-31T14:27:54;101031.66;;;21.12;65.68
57050;BME280;42935;50.966;16.992;2023-08-31T14:31:08;101020.77;;;20.97;64.37
57050;BME280;42935;50.966;16.992;2023-08-31T14:34:25;101028.70;;;20.59;66.55
57050;BME280;42935;50.966;16.992;2023-08-31T14:37:38;101033.55;;;21.50;66.72
57050;BME280;42935;50.966;16.992;2023-08-31T14:41:23;101034.48;;;21.95;63.56
57050;BME280;42935;50.966;16.992;2023-08-31T14:44:40;101033.98;;;22.24;64.22
57050;BME280;42935;50.966;16.992;2023-08-31T14:47:59;101029.95;;;22.27;64.97
57050;BME280;42935;50.966;16.992;2023-08-31T14:51:16;101029.41;;;21.82;62.58
57050;BME280;42935;50.966;16.992;2023-08-31T14:54:31;101023.45;;;21.83;65.41
57050;BME280;42935;50.966;16.992;2023-08-31T14:57:52;101031.75;;;22.01;65.22
57050;BME280;42935;50.966;16.992;2023-08-31T15:01:05;101022.38;;;22.46;62.57
57050;BME280;42935;50.966;16.992;2023-08-31T15:04:21;101014.03;;;22.85;61.57
57050;BME280;42935;50.966;16.992;2023-08-31T15:07:34;101011.86;;;23.11;60.11
57050;BME280;42935;50.966;16.992;2023-08-31T15:10:47;101021.19;;;22.62;60.14
57050;BME280;42935;50.966;16.992;2023-08-31T15:14:02;101015.84;;;23.04;61.26
57050;BME280;42935;50.966;16.992;2023-08-31T15:17:26;101011.21;;;23.66;60.74
57050;BME280;42935;50.966;16.992;2023-08-31T15:20:43;101010.41;;;23.69;56.24
57050;BME280;42935;50.966;16.992;2023-08-31T15:24:00;101023.78;;;22.79;56.30
57050;BME280;42935;50.966;16.992;2023-08-31T15:27:18;101023.41;;;22.89;59.31
57050;BME280;42935;50.966;16.992;2023-08-31T15:30:35;101030.63;;;22.63;58.70
57050;BME280;42935;50.966;16.992;2023-08-31T15:33:48;101035.16;;;22.48;57.39
57050;BME280;42935;50.966;16.992;2023-08-31T15:37:03;101039.59;;;22.29;57.07
57050;BME280;42935;50.966;16.992;2023-08-31T15:40:16;101040.13;;;22.63;57.71
57050;BME280;42935;50.966;16.992;2023-08-31T15:43:35;101041.73;;;21.98;56.78
57050;BME280;42935;50.966;16.992;2023-08-31T15:46:49;101045.70;;;22.02;57.99
57050;BME280;42935;50.966;16.992;2023-08-31T15:50:07;101058.48;;;21.73;58.64
57050;BME280;42935;50.966;16.992;2023-08-31T15:53:23;101064.43;;;21.98;58.28
57050;BME280;42935;50.966;16.992;2023-08-31T15:56:40;101061.97;;;21.75;58.90
57050;BME280;42935;50.966;16.992;2023-08-31T15:59:58;101058.64;;;21.75;58.98
57050;BME280;42935;50.966;16.992;2023-08-31T16:03:15;101071.37;;;22.00;59.07
57050;BME280;42935;50.966;16.992;2023-08-31T16:06:30;101061.26;;;21.99;58.20
57050;BME280;42935;50.966;16.992;2023-08-31T16:09:53;101064.57;;;22.00;58.42
57050;BME280;42935;50.966;16.992;2023-08-31T16:13:06;101058.93;;;21.67;57.29
57050;BME280;42935;50.966;16.992;2023-08-31T16:16:17;101074.10;;;21.04;56.94
57050;BME280;42935;50.966;16.992;2023-08-31T16:19:36;101064.49;;;19.93;61.52
57050;BME280;42935;50.966;16.992;2023-08-31T16:22:48;101058.55;;;19.33;62.60
57050;BME280;42935;50.966;16.992;2023-08-31T16:26:02;101076.79;;;18.74;64.48
57050;BME280;42935;50.966;16.992;2023-08-31T16:29:21;101075.84;;;18.37;66.83
57050;BME280;42935;50.966;16.992;2023-08-31T16:32:38;101083.05;;;18.76;66.46
57050;BME280;42935;50.966;16.992;2023-08-31T16:36:00;101085.01;;;18.85;64.18
57050;BME280;42935;50.966;16.992;2023-08-31T16:39:20;101101.27;;;19.45;64.04
57050;BME280;42935;50.966;16.992;2023-08-31T16:43:08;101089.56;;;19.32;63.87
57050;BME280;42935;50.966;16.992;2023-08-31T16:46:23;101108.07;;;18.90;65.06
57050;BME280;42935;50.966;16.992;2023-08-31T16:49:40;101097.18;;;18.40;67.32
57050;BME280;42935;50.966;16.992;2023-08-31T16:52:55;101106.59;;;18.21;67.05
57050;BME280;42935;50.966;16.992;2023-08-31T16:56:10;101109.81;;;18.00;68.70
57050;BME280;42935;50.966;16.992;2023-08-31T16:59:28;101109.63;;;17.71;71.41
57050;BME280;42935;50.966;16.992;2023-08-31T17:03:14;101113.32;;;18.08;70.99
57050;BME280;42935;50.966;16.992;2023-08-31T17:07:03;101108.70;;;18.22;70.97
57050;BME280;42935;50.966;16.992;2023-08-31T17:10:17;101118.17;;;18.46;70.32
57050;BME280;42935;50.966;16.992;2023-08-31T17:13:34;101121.19;;;18.33;70.41
57050;BME280;42935;50.966;16.992;2023-08-31T17:16:51;101085.43;;;17.27;77.96
57050;BME280;42935;50.966;16.992;2023-08-31T17:20:05;101110.66;;;17.18;79.43
57050;BME280;42935;50.966;16.992;2023-08-31T17:23:30;101139.27;;;16.97;82.75
57050;BME280;42935;50.966;16.992;2023-08-31T17:26:47;101141.33;;;16.42;88.70
57050;BME280;42935;50.966;16.992;2023-08-31T17:30:05;101149.77;;;16.96;84.65